Terminal Aerodrome Forecast
Issued by NWS Blacksburg, VA

Home | Current Version | Previous Version | Text Only | Print | Product List | Glossary On
Versions: 1 2 3 4 5 6 7 8 9 10 11 12 13 14 15 16 17 18 19 20 21 22 23 24 25 26 27 28 29 30 31 32 33 34 35 36 37 38 39
000
FTUS41 KRNK 280150 AAA
TAFBLF
TAF AMD
KBLF 280150Z 2802/2824 30011G21KT P6SM SCT015
      TEMPO 2802/2803 -SHSN OVC015
     FM280400 30010G20KT P6SM OVC012
     FM281500 31008KT P6SM SCT020
     FM282200 VRB05KT P6SM SCT250=

USA.gov is the U.S. government's official web portal to all federal, state and local government web resources and services.